sensor_id;sensor_type;location;lat;lon;timestamp;P1;durP1;ratioP1;P2;durP2;ratioP2
75165;SDS011;63747;48.042;10.088;2023-03-14T00:00:11;0.57;;;0.10;;
75165;SDS011;63747;48.042;10.088;2023-03-14T00:03:14;0.50;;;0.20;;
75165;SDS011;63747;48.042;10.088;2023-03-14T00:06:15;1.20;;;0.30;;
75165;SDS011;63747;48.042;10.088;2023-03-14T00:09:16;0.47;;;0.13;;
75165;SDS011;63747;48.042;10.088;2023-03-14T00:12:17;0.93;;;0.10;;
75165;SDS011;63747;48.042;10.088;2023-03-14T00:15:18;1.20;;;0.20;;
75165;SDS011;63747;48.042;10.088;2023-03-14T00:18:19;0.70;;;0.30;;
75165;SDS011;63747;48.042;10.088;2023-03-14T00:21:19;0.40;;;0.10;;
75165;SDS011;63747;48.042;10.088;2023-03-14T00:24:20;1.23;;;0.30;;
75165;SDS011;63747;48.042;10.088;2023-03-14T00:27:21;0.43;;;0.10;;
75165;SDS011;63747;48.042;10.088;2023-03-14T00:30:21;0.40;;;0.10;;
75165;SDS011;63747;48.042;10.088;2023-03-14T00:33:22;1.07;;;0.10;;
75165;SDS011;63747;48.042;10.088;2023-03-14T00:39:24;1.77;;;0.20;;
75165;SDS011;63747;48.042;10.088;2023-03-14T00:42:25;0.97;;;0.10;;
75165;SDS011;63747;48.042;10.088;2023-03-14T00:45:26;0.70;;;0.20;;
75165;SDS011;63747;48.042;10.088;2023-03-14T00:48:26;0.50;;;0.20;;
75165;SDS011;63747;48.042;10.088;2023-03-14T00:51:27;1.60;;;0.20;;
75165;SDS011;63747;48.042;10.088;2023-03-14T00:54:28;0.53;;;0.10;;
75165;SDS011;63747;48.042;10.088;2023-03-14T00:57:29;2.87;;;0.40;;
75165;SDS011;63747;48.042;10.088;2023-03-14T01:00:30;0.57;;;0.10;;
75165;SDS011;63747;48.042;10.088;2023-03-14T01:03:30;1.27;;;0.17;;
75165;SDS011;63747;48.042;10.088;2023-03-14T01:06:31;0.80;;;0.30;;
75165;SDS011;63747;48.042;10.088;2023-03-14T01:09:32;0.97;;;0.20;;
75165;SDS011;63747;48.042;10.088;2023-03-14T01:12:32;1.87;;;0.30;;
75165;SDS011;63747;48.042;10.088;2023-03-14T01:15:33;3.33;;;0.30;;
75165;SDS011;63747;48.042;10.088;2023-03-14T01:18:35;0.68;;;0.20;;
75165;SDS011;63747;48.042;10.088;2023-03-14T01:21:36;0.52;;;0.10;;
75165;SDS011;63747;48.042;10.088;2023-03-14T01:24:37;0.27;;;0.00;;
75165;SDS011;63747;48.042;10.088;2023-03-14T01:27:38;0.38;;;0.00;;
75165;SDS011;63747;48.042;10.088;2023-03-14T01:30:38;0.53;;;0.10;;
75165;SDS011;63747;48.042;10.088;2023-03-14T01:33:39;0.63;;;0.10;;
75165;SDS011;63747;48.042;10.088;2023-03-14T01:39:41;0.47;;;0.10;;
75165;SDS011;63747;48.042;10.088;2023-03-14T01:42:46;0.10;;;0.00;;
75165;SDS011;63747;48.042;10.088;2023-03-14T01:49:17;0.25;;;0.10;;
75165;SDS011;63747;48.042;10.088;2023-03-14T01:52:35;0.20;;;0.08;;
75165;SDS011;63747;48.042;10.088;2023-03-14T01:55:41;0.10;;;0.10;;
75165;SDS011;63747;48.042;10.088;2023-03-14T01:58:43;0.73;;;0.10;;
75165;SDS011;63747;48.042;10.088;2023-03-14T02:01:47;0.70;;;0.28;;
75165;SDS011;63747;48.042;10.088;2023-03-14T02:04:51;0.10;;;0.05;;
75165;SDS011;63747;48.042;10.088;2023-03-14T02:07:54;0.10;;;0.00;;
75165;SDS011;63747;48.042;10.088;2023-03-14T02:10:57;2.10;;;0.20;;
75165;SDS011;63747;48.042;10.088;2023-03-14T02:13:57;0.20;;;0.17;;
75165;SDS011;63747;48.042;10.088;2023-03-14T02:17:00;0.20;;;0.10;;
75165;SDS011;63747;48.042;10.088;2023-03-14T02:27:00;1.58;;;0.10;;
75165;SDS011;63747;48.042;10.088;2023-03-14T02:30:11;0.10;;;0.10;;
75165;SDS011;63747;48.042;10.088;2023-03-14T02:33:16;1.15;;;0.10;;
75165;SDS011;63747;48.042;10.088;2023-03-14T02:36:19;0.05;;;0.00;;
75165;SDS011;63747;48.042;10.088;2023-03-14T02:39:22;0.25;;;0.10;;
75165;SDS011;63747;48.042;10.088;2023-03-14T02:42:28;0.70;;;0.10;;
75165;SDS011;63747;48.042;10.088;2023-03-14T02:45:32;1.83;;;0.10;;
75165;SDS011;63747;48.042;10.088;2023-03-14T02:48:38;0.10;;;0.10;;
75165;SDS011;63747;48.042;10.088;2023-03-14T02:51:43;2.50;;;0.10;;
75165;SDS011;63747;48.042;10.088;2023-03-14T02:54:45;0.10;;;0.10;;
75165;SDS011;63747;48.042;10.088;2023-03-14T02:57:46;0.03;;;0.03;;
75165;SDS011;63747;48.042;10.088;2023-03-14T03:00:46;0.10;;;0.10;;
75165;SDS011;63747;48.042;10.088;2023-03-14T03:03:47;0.38;;;0.10;;
75165;SDS011;63747;48.042;10.088;2023-03-14T03:06:48;0.33;;;0.20;;
75165;SDS011;63747;48.042;10.088;2023-03-14T03:09:49;0.17;;;0.10;;
75165;SDS011;63747;48.042;10.088;2023-03-14T03:12:50;1.40;;;0.10;;
75165;SDS011;63747;48.042;10.088;2023-03-14T03:15:51;0.20;;;0.10;;
75165;SDS011;63747;48.042;10.088;2023-03-14T03:18:52;0.13;;;0.10;;
75165;SDS011;63747;48.042;10.088;2023-03-14T03:21:52;1.40;;;0.20;;
75165;SDS011;63747;48.042;10.088;2023-03-14T03:24:53;1.60;;;0.30;;
75165;SDS011;63747;48.042;10.088;2023-03-14T03:27:54;0.10;;;0.10;;
75165;SDS011;63747;48.042;10.088;2023-03-14T03:30:54;0.10;;;0.10;;
75165;SDS011;63747;48.042;10.088;2023-03-14T03:33:56;0.60;;;0.00;;
75165;SDS011;63747;48.042;10.088;2023-03-14T03:36:57;0.30;;;0.10;;
75165;SDS011;63747;48.042;10.088;2023-03-14T03:39:58;0.10;;;0.10;;
75165;SDS011;63747;48.042;10.088;2023-03-14T03:42:59;0.27;;;0.20;;
75165;SDS011;63747;48.042;10.088;2023-03-14T03:49:04;0.70;;;0.20;;
75165;SDS011;63747;48.042;10.088;2023-03-14T03:52:05;0.57;;;0.27;;
75165;SDS011;63747;48.042;10.088;2023-03-14T03:55:06;1.00;;;0.23;;
75165;SDS011;63747;48.042;10.088;2023-03-14T03:58:07;0.30;;;0.10;;
75165;SDS011;63747;48.042;10.088;2023-03-14T04:01:08;0.25;;;0.13;;
75165;SDS011;63747;48.042;10.088;2023-03-14T04:04:10;0.30;;;0.10;;
75165;SDS011;63747;48.042;10.088;2023-03-14T04:07:11;0.97;;;0.20;;
75165;SDS011;63747;48.042;10.088;2023-03-14T04:10:13;2.15;;;0.10;;
75165;SDS011;63747;48.042;10.088;2023-03-14T04:13:14;0.20;;;0.10;;
75165;SDS011;63747;48.042;10.088;2023-03-14T04:16:19;0.30;;;0.17;;
75165;SDS011;63747;48.042;10.088;2023-03-14T04:19:22;0.20;;;0.10;;
75165;SDS011;63747;48.042;10.088;2023-03-14T04:22:22;0.20;;;0.10;;
75165;SDS011;63747;48.042;10.088;2023-03-14T04:25:23;0.43;;;0.17;;
75165;SDS011;63747;48.042;10.088;2023-03-14T04:28:24;1.27;;;0.10;;
75165;SDS011;63747;48.042;10.088;2023-03-14T04:31:24;0.10;;;0.10;;
75165;SDS011;63747;48.042;10.088;2023-03-14T04:34:25;0.17;;;0.13;;
75165;SDS011;63747;48.042;10.088;2023-03-14T04:37:26;0.20;;;0.10;;
75165;SDS011;63747;48.042;10.088;2023-03-14T04:40:26;0.30;;;0.10;;
75165;SDS011;63747;48.042;10.088;2023-03-14T04:43:27;0.27;;;0.17;;
75165;SDS011;63747;48.042;10.088;2023-03-14T04:46:28;0.50;;;0.17;;
75165;SDS011;63747;48.042;10.088;2023-03-14T04:49:29;0.33;;;0.20;;
75165;SDS011;63747;48.042;10.088;2023-03-14T04:52:29;0.80;;;0.10;;
75165;SDS011;63747;48.042;10.088;2023-03-14T04:55:30;1.60;;;0.20;;
75165;SDS011;63747;48.042;10.088;2023-03-14T04:58:32;0.32;;;0.10;;
75165;SDS011;63747;48.042;10.088;2023-03-14T05:01:33;0.20;;;0.00;;
75165;SDS011;63747;48.042;10.088;2023-03-14T05:04:34;0.10;;;0.10;;
75165;SDS011;63747;48.042;10.088;2023-03-14T05:07:35;0.20;;;0.10;;
75165;SDS011;63747;48.042;10.088;2023-03-14T05:10:35;0.90;;;0.20;;
75165;SDS011;63747;48.042;10.088;2023-03-14T05:13:36;0.20;;;0.17;;
75165;SDS011;63747;48.042;10.088;2023-03-14T05:16:37;0.63;;;0.10;;
75165;SDS011;63747;48.042;10.088;2023-03-14T05:19:37;0.70;;;0.10;;
75165;SDS011;63747;48.042;10.088;2023-03-14T05:22:39;0.00;;;0.00;;
75165;SDS011;63747;48.042;10.088;2023-03-14T05:25:39;1.08;;;0.20;;
75165;SDS011;63747;48.042;10.088;2023-03-14T05:28:40;1.83;;;0.10;;
75165;SDS011;63747;48.042;10.088;2023-03-14T05:31:41;0.93;;;0.10;;
75165;SDS011;63747;48.042;10.088;2023-03-14T05:34:41;0.30;;;0.10;;
75165;SDS011;63747;48.042;10.088;2023-03-14T05:37:42;1.23;;;0.10;;
75165;SDS011;63747;48.042;10.088;2023-03-14T05:40:44;0.23;;;0.10;;
75165;SDS011;63747;48.042;10.088;2023-03-14T05:43:45;0.10;;;0.10;;
75165;SDS011;63747;48.042;10.088;2023-03-14T05:46:45;0.10;;;0.07;;
75165;SDS011;63747;48.042;10.088;2023-03-14T05:49:46;0.10;;;0.10;;
75165;SDS011;63747;48.042;10.088;2023-03-14T05:52:47;0.40;;;0.10;;
75165;SDS011;63747;48.042;10.088;2023-03-14T05:55:50;0.63;;;0.30;;
75165;SDS011;63747;48.042;10.088;2023-03-14T05:58:52;0.15;;;0.13;;
75165;SDS011;63747;48.042;10.088;2023-03-14T06:01:52;0.37;;;0.10;;
75165;SDS011;63747;48.042;10.088;2023-03-14T06:04:53;0.60;;;0.60;;
75165;SDS011;63747;48.042;10.088;2023-03-14T06:07:53;1.63;;;0.37;;
75165;SDS011;63747;48.042;10.088;2023-03-14T06:10:54;0.87;;;0.80;;
75165;SDS011;63747;48.042;10.088;2023-03-14T06:13:57;11.82;;;10.63;;
75165;SDS011;63747;48.042;10.088;2023-03-14T06:16:57;3.80;;;2.10;;
75165;SDS011;63747;48.042;10.088;2023-03-14T06:19:59;5.43;;;3.90;;
75165;SDS011;63747;48.042;10.088;2023-03-14T06:22:59;0.10;;;0.10;;
75165;SDS011;63747;48.042;10.088;2023-03-14T11:50:22;25.92;;;2.83;;
75165;SDS011;63747;48.042;10.088;2023-03-14T12:00:19;0.28;;;0.10;;
75165;SDS011;63747;48.042;10.088;2023-03-14T12:04:05;0.32;;;0.10;;
75165;SDS011;63747;48.042;10.088;2023-03-14T12:06:56;0.80;;;0.00;;
75165;SDS011;63747;48.042;10.088;2023-03-14T12:09:59;0.30;;;0.10;;
75165;SDS011;63747;48.042;10.088;2023-03-14T12:12:59;0.90;;;0.10;;
75165;SDS011;63747;48.042;10.088;2023-03-14T12:16:01;0.07;;;0.07;;
75165;SDS011;63747;48.042;10.088;2023-03-14T12:22:22;0.17;;;0.13;;
75165;SDS011;63747;48.042;10.088;2023-03-14T12:25:27;0.32;;;0.10;;
75165;SDS011;63747;48.042;10.088;2023-03-14T12:28:31;0.30;;;0.20;;
75165;SDS011;63747;48.042;10.088;2023-03-14T12:31:35;0.38;;;0.10;;
75165;SDS011;63747;48.042;10.088;2023-03-14T12:34:43;118.13;;;7.37;;
75165;SDS011;63747;48.042;10.088;2023-03-14T12:37:47;1.02;;;0.10;;
75165;SDS011;63747;48.042;10.088;2023-03-14T12:50:36;0.40;;;0.20;;
75165;SDS011;63747;48.042;10.088;2023-03-14T12:53:54;0.28;;;0.10;;
75165;SDS011;63747;48.042;10.088;2023-03-14T13:00:17;0.52;;;0.20;;
75165;SDS011;63747;48.042;10.088;2023-03-14T13:03:25;0.80;;;0.57;;
75165;SDS011;63747;48.042;10.088;2023-03-14T13:10:03;1.60;;;0.20;;
75165;SDS011;63747;48.042;10.088;2023-03-14T13:13:20;2.05;;;0.65;;
75165;SDS011;63747;48.042;10.088;2023-03-14T13:16:23;0.40;;;0.20;;
75165;SDS011;63747;48.042;10.088;2023-03-14T13:19:25;0.30;;;0.20;;
75165;SDS011;63747;48.042;10.088;2023-03-14T13:22:29;0.55;;;0.40;;
75165;SDS011;63747;48.042;10.088;2023-03-14T13:25:33;0.70;;;0.35;;
75165;SDS011;63747;48.042;10.088;2023-03-14T13:28:35;0.77;;;0.43;;
75165;SDS011;63747;48.042;10.088;2023-03-14T13:31:36;0.53;;;0.20;;
75165;SDS011;63747;48.042;10.088;2023-03-14T13:34:36;0.67;;;0.33;;
75165;SDS011;63747;48.042;10.088;2023-03-14T13:37:38;0.40;;;0.20;;
75165;SDS011;63747;48.042;10.088;2023-03-14T13:40:40;0.20;;;0.10;;
75165;SDS011;63747;48.042;10.088;2023-03-14T13:43:43;0.20;;;0.10;;
75165;SDS011;63747;48.042;10.088;2023-03-14T13:46:44;0.80;;;0.17;;
75165;SDS011;63747;48.042;10.088;2023-03-14T13:49:45;0.70;;;0.20;;
75165;SDS011;63747;48.042;10.088;2023-03-14T13:52:54;19.60;;;1.15;;
75165;SDS011;63747;48.042;10.088;2023-03-14T13:55:57;0.68;;;0.20;;
75165;SDS011;63747;48.042;10.088;2023-03-14T13:59:02;0.52;;;0.20;;
75165;SDS011;63747;48.042;10.088;2023-03-14T14:02:12;0.70;;;0.30;;
75165;SDS011;63747;48.042;10.088;2023-03-14T14:05:14;0.63;;;0.20;;
75165;SDS011;63747;48.042;10.088;2023-03-14T14:08:15;1.08;;;0.40;;
75165;SDS011;63747;48.042;10.088;2023-03-14T14:11:19;0.87;;;0.50;;
75165;SDS011;63747;48.042;10.088;2023-03-14T14:14:29;0.28;;;0.20;;
75165;SDS011;63747;48.042;10.088;2023-03-14T14:17:41;0.90;;;0.22;;
75165;SDS011;63747;48.042;10.088;2023-03-14T14:20:45;4.63;;;0.82;;
75165;SDS011;63747;48.042;10.088;2023-03-14T14:23:47;1.27;;;0.45;;
75165;SDS011;63747;48.042;10.088;2023-03-14T14:26:58;1.42;;;0.20;;
75165;SDS011;63747;48.042;10.088;2023-03-14T14:30:02;1.45;;;0.40;;
75165;SDS011;63747;48.042;10.088;2023-03-14T14:33:24;0.93;;;0.40;;
75165;SDS011;63747;48.042;10.088;2023-03-14T14:36:29;1.13;;;0.37;;
75165;SDS011;63747;48.042;10.088;2023-03-14T14:39:31;0.65;;;0.30;;
75165;SDS011;63747;48.042;10.088;2023-03-14T14:42:32;0.88;;;0.70;;
75165;SDS011;63747;48.042;10.088;2023-03-14T14:45:33;0.40;;;0.30;;
75165;SDS011;63747;48.042;10.088;2023-03-14T14:48:36;2.60;;;0.45;;
75165;SDS011;63747;48.042;10.088;2023-03-14T14:51:39;1.40;;;0.40;;
75165;SDS011;63747;48.042;10.088;2023-03-14T14:54:44;1.13;;;0.40;;
75165;SDS011;63747;48.042;10.088;2023-03-14T14:57:50;0.82;;;0.40;;
75165;SDS011;63747;48.042;10.088;2023-03-14T15:00:58;0.63;;;0.20;;
75165;SDS011;63747;48.042;10.088;2023-03-14T15:04:09;1.23;;;0.70;;
75165;SDS011;63747;48.042;10.088;2023-03-14T15:07:13;1.33;;;0.40;;
75165;SDS011;63747;48.042;10.088;2023-03-14T15:10:21;2.67;;;0.43;;
75165;SDS011;63747;48.042;10.088;2023-03-14T15:13:24;3.60;;;0.93;;
75165;SDS011;63747;48.042;10.088;2023-03-14T15:16:27;1.17;;;0.50;;
75165;SDS011;63747;48.042;10.088;2023-03-14T15:19:29;0.93;;;0.50;;
75165;SDS011;63747;48.042;10.088;2023-03-14T15:22:32;1.55;;;0.50;;
75165;SDS011;63747;48.042;10.088;2023-03-14T15:25:33;2.30;;;0.50;;
75165;SDS011;63747;48.042;10.088;2023-03-14T15:28:33;1.10;;;0.47;;
75165;SDS011;63747;48.042;10.088;2023-03-14T15:31:34;0.90;;;0.30;;
75165;SDS011;63747;48.042;10.088;2023-03-14T15:34:35;0.98;;;0.40;;
75165;SDS011;63747;48.042;10.088;2023-03-14T15:37:36;1.40;;;0.40;;
75165;SDS011;63747;48.042;10.088;2023-03-14T15:40:37;1.83;;;0.80;;
75165;SDS011;63747;48.042;10.088;2023-03-14T15:43:38;0.80;;;0.27;;
75165;SDS011;63747;48.042;10.088;2023-03-14T15:46:38;1.67;;;0.40;;
75165;SDS011;63747;48.042;10.088;2023-03-14T15:49:39;1.23;;;0.30;;
75165;SDS011;63747;48.042;10.088;2023-03-14T15:52:40;2.93;;;0.50;;
75165;SDS011;63747;48.042;10.088;2023-03-14T15:55:41;3.15;;;0.60;;
75165;SDS011;63747;48.042;10.088;2023-03-14T15:58:42;1.87;;;0.57;;
75165;SDS011;63747;48.042;10.088;2023-03-14T16:01:46;1.77;;;0.77;;
75165;SDS011;63747;48.042;10.088;2023-03-14T16:04:47;2.00;;;1.13;;
75165;SDS011;63747;48.042;10.088;2023-03-14T16:07:48;2.13;;;0.60;;
75165;SDS011;63747;48.042;10.088;2023-03-14T16:10:49;2.07;;;0.83;;
75165;SDS011;63747;48.042;10.088;2023-03-14T16:13:49;2.83;;;0.67;;
75165;SDS011;63747;48.042;10.088;2023-03-14T16:16:51;2.83;;;0.70;;
75165;SDS011;63747;48.042;10.088;2023-03-14T16:19:54;1.98;;;0.63;;
75165;SDS011;63747;48.042;10.088;2023-03-14T16:22:55;1.13;;;0.40;;
75165;SDS011;63747;48.042;10.088;2023-03-14T16:25:57;1.80;;;0.50;;
75165;SDS011;63747;48.042;10.088;2023-03-14T16:28:58;2.03;;;0.77;;
75165;SDS011;63747;48.042;10.088;2023-03-14T16:31:59;1.47;;;0.40;;
75165;SDS011;63747;48.042;10.088;2023-03-14T16:34:59;1.83;;;0.57;;
75165;SDS011;63747;48.042;10.088;2023-03-14T16:38:00;3.30;;;0.50;;
75165;SDS011;63747;48.042;10.088;2023-03-14T16:41:05;2.50;;;0.50;;
75165;SDS011;63747;48.042;10.088;2023-03-14T16:44:07;3.85;;;0.50;;
75165;SDS011;63747;48.042;10.088;2023-03-14T16:47:08;1.50;;;0.50;;
75165;SDS011;63747;48.042;10.088;2023-03-14T16:50:09;2.13;;;0.60;;
75165;SDS011;63747;48.042;10.088;2023-03-14T16:53:10;9.50;;;4.37;;
75165;SDS011;63747;48.042;10.088;2023-03-14T16:56:11;66.33;;;33.93;;
75165;SDS011;63747;48.042;10.088;2023-03-14T16:59:12;15.80;;;8.27;;
75165;SDS011;63747;48.042;10.088;2023-03-14T17:02:13;97.97;;;48.67;;
75165;SDS011;63747;48.042;10.088;2023-03-14T17:05:13;42.37;;;24.13;;
75165;SDS011;63747;48.042;10.088;2023-03-14T17:08:15;126.10;;;71.80;;
75165;SDS011;63747;48.042;10.088;2023-03-14T17:11:17;211.40;;;110.40;;
75165;SDS011;63747;48.042;10.088;2023-03-14T17:14:18;189.83;;;122.43;;
75165;SDS011;63747;48.042;10.088;2023-03-14T17:17:19;5.87;;;1.47;;
75165;SDS011;63747;48.042;10.088;2023-03-14T17:20:19;2.40;;;1.27;;
75165;SDS011;63747;48.042;10.088;2023-03-14T17:23:20;3.60;;;1.47;;
75165;SDS011;63747;48.042;10.088;2023-03-14T17:26:22;2.50;;;0.98;;
75165;SDS011;63747;48.042;10.088;2023-03-14T17:29:22;3.17;;;1.10;;
75165;SDS011;63747;48.042;10.088;2023-03-14T17:32:23;3.23;;;1.17;;
75165;SDS011;63747;48.042;10.088;2023-03-14T17:35:25;3.30;;;1.08;;
75165;SDS011;63747;48.042;10.088;2023-03-14T17:38:30;2.78;;;1.10;;
75165;SDS011;63747;48.042;10.088;2023-03-14T17:41:32;3.35;;;0.68;;
75165;SDS011;63747;48.042;10.088;2023-03-14T17:44:32;6.33;;;2.50;;
75165;SDS011;63747;48.042;10.088;2023-03-14T17:47:33;1.63;;;0.93;;
75165;SDS011;63747;48.042;10.088;2023-03-14T17:50:34;2.63;;;1.03;;
75165;SDS011;63747;48.042;10.088;2023-03-14T17:53:35;4.22;;;1.13;;
75165;SDS011;63747;48.042;10.088;2023-03-14T17:56:36;1.83;;;0.70;;
75165;SDS011;63747;48.042;10.088;2023-03-14T17:59:37;12.97;;;8.83;;
75165;SDS011;63747;48.042;10.088;2023-03-14T18:02:38;4.83;;;1.20;;
75165;SDS011;63747;48.042;10.088;2023-03-14T18:05:40;1.90;;;0.98;;
75165;SDS011;63747;48.042;10.088;2023-03-14T18:08:41;3.77;;;1.10;;
75165;SDS011;63747;48.042;10.088;2023-03-14T18:11:42;4.65;;;1.33;;
75165;SDS011;63747;48.042;10.088;2023-03-14T18:14:43;2.73;;;1.50;;
75165;SDS011;63747;48.042;10.088;2023-03-14T18:17:44;5.83;;;1.23;;
75165;SDS011;63747;48.042;10.088;2023-03-14T18:20:51;3.03;;;1.77;;
75165;SDS011;63747;48.042;10.088;2023-03-14T18:23:52;2.72;;;1.10;;
75165;SDS011;63747;48.042;10.088;2023-03-14T18:26:53;2.40;;;1.25;;
75165;SDS011;63747;48.042;10.088;2023-03-14T18:29:54;4.77;;;1.30;;
75165;SDS011;63747;48.042;10.088;2023-03-14T18:32:55;3.60;;;1.47;;
75165;SDS011;63747;48.042;10.088;2023-03-14T18:35:55;4.47;;;2.10;;
75165;SDS011;63747;48.042;10.088;2023-03-14T18:38:56;7.63;;;1.70;;
75165;SDS011;63747;48.042;10.088;2023-03-14T18:41:57;3.65;;;1.30;;
75165;SDS011;63747;48.042;10.088;2023-03-14T18:44:58;6.23;;;2.60;;
75165;SDS011;63747;48.042;10.088;2023-03-14T18:47:58;4.23;;;1.87;;
75165;SDS011;63747;48.042;10.088;2023-03-14T18:50:59;3.63;;;1.30;;
75165;SDS011;63747;48.042;10.088;2023-03-14T18:54:00;3.47;;;1.07;;
75165;SDS011;63747;48.042;10.088;2023-03-14T18:57:01;4.17;;;2.13;;
75165;SDS011;63747;48.042;10.088;2023-03-14T19:00:01;8.83;;;3.53;;
75165;SDS011;63747;48.042;10.088;2023-03-14T19:03:04;4.47;;;2.38;;
75165;SDS011;63747;48.042;10.088;2023-03-14T19:06:05;4.23;;;1.57;;
75165;SDS011;63747;48.042;10.088;2023-03-14T19:09:08;7.80;;;2.30;;
75165;SDS011;63747;48.042;10.088;2023-03-14T19:12:13;1.60;;;0.38;;
75165;SDS011;63747;48.042;10.088;2023-03-14T19:15:13;1.20;;;0.60;;
75165;SDS011;63747;48.042;10.088;2023-03-14T19:18:14;2.87;;;1.30;;
75165;SDS011;63747;48.042;10.088;2023-03-14T19:21:15;2.33;;;1.00;;
75165;SDS011;63747;48.042;10.088;2023-03-14T19:24:26;2.17;;;0.70;;
75165;SDS011;63747;48.042;10.088;2023-03-14T19:27:27;2.42;;;1.17;;
75165;SDS011;63747;48.042;10.088;2023-03-14T19:30:27;3.03;;;1.07;;
75165;SDS011;63747;48.042;10.088;2023-03-14T19:33:29;2.90;;;1.23;;
75165;SDS011;63747;48.042;10.088;2023-03-14T19:36:33;4.90;;;0.85;;
75165;SDS011;63747;48.042;10.088;2023-03-14T19:39:35;2.13;;;1.10;;
75165;SDS011;63747;48.042;10.088;2023-03-14T19:42:36;2.27;;;0.90;;
75165;SDS011;63747;48.042;10.088;2023-03-14T19:45:36;2.00;;;0.70;;
75165;SDS011;63747;48.042;10.088;2023-03-14T19:48:37;46.30;;;34.53;;
75165;SDS011;63747;48.042;10.088;2023-03-14T19:51:38;3.17;;;0.82;;
75165;SDS011;63747;48.042;10.088;2023-03-14T19:57:41;5.45;;;2.30;;
75165;SDS011;63747;48.042;10.088;2023-03-14T20:00:42;4.83;;;1.87;;
75165;SDS011;63747;48.042;10.088;2023-03-14T20:03:44;3.80;;;1.67;;
75165;SDS011;63747;48.042;10.088;2023-03-14T20:06:45;5.93;;;3.27;;
75165;SDS011;63747;48.042;10.088;2023-03-14T20:09:45;6.23;;;3.40;;
75165;SDS011;63747;48.042;10.088;2023-03-14T20:12:46;4.63;;;2.90;;
75165;SDS011;63747;48.042;10.088;2023-03-14T20:15:47;4.05;;;1.60;;
75165;SDS011;63747;48.042;10.088;2023-03-14T20:18:48;4.45;;;2.30;;
75165;SDS011;63747;48.042;10.088;2023-03-14T20:21:49;2.70;;;1.20;;
75165;SDS011;63747;48.042;10.088;2023-03-14T20:24:50;4.43;;;2.33;;
75165;SDS011;63747;48.042;10.088;2023-03-14T20:27:51;3.10;;;1.67;;
75165;SDS011;63747;48.042;10.088;2023-03-14T20:30:52;5.70;;;4.30;;
75165;SDS011;63747;48.042;10.088;2023-03-14T20:33:53;4.07;;;2.60;;
75165;SDS011;63747;48.042;10.088;2023-03-14T20:36:53;5.13;;;3.10;;
75165;SDS011;63747;48.042;10.088;2023-03-14T20:39:54;3.03;;;1.27;;
75165;SDS011;63747;48.042;10.088;2023-03-14T20:42:55;2.10;;;1.53;;
75165;SDS011;63747;48.042;10.088;2023-03-14T20:45:56;4.70;;;1.17;;
75165;SDS011;63747;48.042;10.088;2023-03-14T20:48:58;3.45;;;1.00;;
75165;SDS011;63747;48.042;10.088;2023-03-14T20:52:01;2.03;;;0.93;;
75165;SDS011;63747;48.042;10.088;2023-03-14T20:55:02;2.00;;;0.73;;
75165;SDS011;63747;48.042;10.088;2023-03-14T20:58:03;1.88;;;0.80;;
75165;SDS011;63747;48.042;10.088;2023-03-14T21:01:04;1.27;;;0.70;;
75165;SDS011;63747;48.042;10.088;2023-03-14T21:04:05;1.53;;;0.60;;
75165;SDS011;63747;48.042;10.088;2023-03-14T21:07:05;1.27;;;0.50;;
75165;SDS011;63747;48.042;10.088;2023-03-14T21:10:10;2.20;;;0.83;;
75165;SDS011;63747;48.042;10.088;2023-03-14T21:13:12;1.88;;;0.60;;
75165;SDS011;63747;48.042;10.088;2023-03-14T21:16:12;2.20;;;0.70;;
75165;SDS011;63747;48.042;10.088;2023-03-14T21:19:13;3.23;;;0.80;;
75165;SDS011;63747;48.042;10.088;2023-03-14T21:22:14;2.30;;;0.67;;
75165;SDS011;63747;48.042;10.088;2023-03-14T21:25:17;2.17;;;0.95;;
75165;SDS011;63747;48.042;10.088;2023-03-14T21:28:18;1.65;;;0.77;;
75165;SDS011;63747;48.042;10.088;2023-03-14T21:31:19;2.30;;;0.73;;
75165;SDS011;63747;48.042;10.088;2023-03-14T21:34:19;3.00;;;0.73;;
75165;SDS011;63747;48.042;10.088;2023-03-14T21:37:25;2.72;;;0.75;;
75165;SDS011;63747;48.042;10.088;2023-03-14T21:40:26;2.40;;;0.80;;
75165;SDS011;63747;48.042;10.088;2023-03-14T21:43:27;3.27;;;0.80;;
75165;SDS011;63747;48.042;10.088;2023-03-14T21:46:28;2.77;;;0.80;;
75165;SDS011;63747;48.042;10.088;2023-03-14T21:49:29;2.60;;;1.00;;
75165;SDS011;63747;48.042;10.088;2023-03-14T21:52:36;3.67;;;0.85;;
75165;SDS011;63747;48.042;10.088;2023-03-14T21:55:41;3.90;;;0.77;;
75165;SDS011;63747;48.042;10.088;2023-03-14T21:58:42;1.35;;;0.70;;
75165;SDS011;63747;48.042;10.088;2023-03-14T22:01:45;2.80;;;1.25;;
75165;SDS011;63747;48.042;10.088;2023-03-14T22:04:46;4.33;;;1.20;;
75165;SDS011;63747;48.042;10.088;2023-03-14T22:07:47;2.17;;;1.10;;
75165;SDS011;63747;48.042;10.088;2023-03-14T22:10:49;4.03;;;0.83;;
75165;SDS011;63747;48.042;10.088;2023-03-14T22:13:51;5.00;;;1.27;;
75165;SDS011;63747;48.042;10.088;2023-03-14T22:16:52;3.23;;;0.80;;
75165;SDS011;63747;48.042;10.088;2023-03-14T22:19:53;2.65;;;0.90;;
75165;SDS011;63747;48.042;10.088;2023-03-14T22:22:54;3.90;;;0.90;;
75165;SDS011;63747;48.042;10.088;2023-03-14T22:25:55;2.83;;;1.17;;
75165;SDS011;63747;48.042;10.088;2023-03-14T22:28:55;3.17;;;1.00;;
75165;SDS011;63747;48.042;10.088;2023-03-14T22:31:56;3.57;;;0.97;;
75165;SDS011;63747;48.042;10.088;2023-03-14T22:34:57;4.57;;;1.03;;
75165;SDS011;63747;48.042;10.088;2023-03-14T22:37:57;2.47;;;0.80;;
75165;SDS011;63747;48.042;10.088;2023-03-14T22:40:59;3.17;;;0.93;;
75165;SDS011;63747;48.042;10.088;2023-03-14T22:44:01;2.83;;;0.80;;
75165;SDS011;63747;48.042;10.088;2023-03-14T22:47:02;1.67;;;0.85;;
75165;SDS011;63747;48.042;10.088;2023-03-14T22:50:03;2.70;;;1.20;;
75165;SDS011;63747;48.042;10.088;2023-03-14T22:53:05;2.95;;;0.93;;
75165;SDS011;63747;48.042;10.088;2023-03-14T22:56:07;4.93;;;1.03;;
75165;SDS011;63747;48.042;10.088;2023-03-14T22:59:08;3.53;;;0.98;;
75165;SDS011;63747;48.042;10.088;2023-03-14T23:02:09;3.10;;;0.73;;
75165;SDS011;63747;48.042;10.088;2023-03-14T23:05:09;3.40;;;0.80;;
75165;SDS011;63747;48.042;10.088;2023-03-14T23:08:10;2.50;;;0.67;;
75165;SDS011;63747;48.042;10.088;2023-03-14T23:11:11;3.33;;;1.00;;
75165;SDS011;63747;48.042;10.088;2023-03-14T23:14:15;3.05;;;0.90;;
75165;SDS011;63747;48.042;10.088;2023-03-14T23:17:16;2.67;;;0.80;;
75165;SDS011;63747;48.042;10.088;2023-03-14T23:20:16;1.37;;;0.80;;
75165;SDS011;63747;48.042;10.088;2023-03-14T23:23:17;2.40;;;1.00;;
75165;SDS011;63747;48.042;10.088;2023-03-14T23:26:22;4.87;;;0.93;;
75165;SDS011;63747;48.042;10.088;2023-03-14T23:29:24;2.72;;;0.98;;
75165;SDS011;63747;48.042;10.088;2023-03-14T23:32:25;2.67;;;1.00;;
75165;SDS011;63747;48.042;10.088;2023-03-14T23:35:26;2.90;;;1.42;;
75165;SDS011;63747;48.042;10.088;2023-03-14T23:38:27;4.63;;;1.20;;
75165;SDS011;63747;48.042;10.088;2023-03-14T23:41:28;2.40;;;0.50;;
75165;SDS011;63747;48.042;10.088;2023-03-14T23:44:28;1.13;;;0.50;;
75165;SDS011;63747;48.042;10.088;2023-03-14T23:47:29;1.77;;;0.47;;
75165;SDS011;63747;48.042;10.088;2023-03-14T23:50:30;1.20;;;0.50;;
75165;SDS011;63747;48.042;10.088;2023-03-14T23:53:31;0.37;;;0.37;;
75165;SDS011;63747;48.042;10.088;2023-03-14T23:56:34;2.03;;;0.47;;
75165;SDS011;63747;48.042;10.088;2023-03-14T23:59:35;0.63;;;0.30;;
